sensor_id;sensor_type;location;lat;lon;timestamp;noise_LAeq;noise_LA_min;noise_LA_max;noise_LA01;noise_LA95
57092;Laerm;42968;52.094;4.328;2023-09-07T00:01:36;54.59;36.56;70.67;;
57092;Laerm;42968;52.094;4.328;2023-09-07T00:04:01;53.26;36.69;68.40;;
57092;Laerm;42968;52.094;4.328;2023-09-07T00:06:28;58.45;36.69;72.90;;
57092;Laerm;42968;52.094;4.328;2023-09-07T00:08:53;42.63;34.69;48.34;;
57092;Laerm;42968;52.094;4.328;2023-09-07T00:11:18;56.78;36.69;76.34;;
57092;Laerm;42968;52.094;4.328;2023-09-07T00:13:44;48.02;35.04;66.38;;
57092;Laerm;42968;52.094;4.328;2023-09-07T00:16:09;42.14;38.37;44.66;;
57092;Laerm;42968;52.094;4.328;2023-09-07T00:18:34;44.08;39.08;67.48;;
57092;Laerm;42968;52.094;4.328;2023-09-07T00:21:00;54.77;40.13;70.76;;
57092;Laerm;42968;52.094;4.328;2023-09-07T00:23:25;51.15;38.95;76.55;;
57092;Laerm;42968;52.094;4.328;2023-09-07T00:25:51;44.77;39.46;65.29;;
57092;Laerm;42968;52.094;4.328;2023-09-07T00:28:16;56.15;39.99;72.41;;
57092;Laerm;42968;52.094;4.328;2023-09-07T00:30:41;47.93;40.33;63.61;;
57092;Laerm;42968;52.094;4.328;2023-09-07T00:33:07;52.76;36.20;71.53;;
57092;Laerm;42968;52.094;4.328;2023-09-07T00:35:32;52.46;38.67;71.62;;
57092;Laerm;42968;52.094;4.328;2023-09-07T00:37:58;51.62;36.69;71.98;;
57092;Laerm;42968;52.094;4.328;2023-09-07T00:40:23;59.22;39.21;74.89;;
57092;Laerm;42968;52.094;4.328;2023-09-07T00:42:48;42.18;35.36;43.99;;
57092;Laerm;42968;52.094;4.328;2023-09-07T00:45:13;49.08;37.52;64.03;;
57092;Laerm;42968;52.094;4.328;2023-09-07T00:47:39;44.43;35.86;55.70;;
57092;Laerm;42968;52.094;4.328;2023-09-07T00:50:05;56.58;36.98;78.53;;
57092;Laerm;42968;52.094;4.328;2023-09-07T00:52:31;54.79;36.45;72.10;;
57092;Laerm;42968;52.094;4.328;2023-09-07T00:54:56;53.69;36.69;75.08;;
57092;Laerm;42968;52.094;4.328;2023-09-07T00:57:21;49.02;36.77;68.29;;
57092;Laerm;42968;52.094;4.328;2023-09-07T00:59:47;55.00;38.52;73.18;;
57092;Laerm;42968;52.094;4.328;2023-09-07T01:02:12;56.00;36.91;69.92;;
57092;Laerm;42968;52.094;4.328;2023-09-07T01:04:37;55.33;39.81;69.80;;
57092;Laerm;42968;52.094;4.328;2023-09-07T01:07:04;53.79;38.21;71.20;;
57092;Laerm;42968;52.094;4.328;2023-09-07T01:09:32;55.69;37.32;72.95;;
57092;Laerm;42968;52.094;4.328;2023-09-07T01:11:59;52.44;35.66;69.14;;
57092;Laerm;42968;52.094;4.328;2023-09-07T01:14:25;54.30;36.69;68.23;;
57092;Laerm;42968;52.094;4.328;2023-09-07T01:16:50;50.63;39.21;66.81;;
57092;Laerm;42968;52.094;4.328;2023-09-07T01:19:16;50.04;35.94;65.01;;
57092;Laerm;42968;52.094;4.328;2023-09-07T01:21:41;42.26;35.36;46.76;;
57092;Laerm;42968;52.094;4.328;2023-09-07T01:24:07;53.11;35.94;70.52;;
57092;Laerm;42968;52.094;4.328;2023-09-07T01:26:33;53.83;35.04;71.91;;
57092;Laerm;42968;52.094;4.328;2023-09-07T01:29:00;45.77;36.20;63.82;;
57092;Laerm;42968;52.094;4.328;2023-09-07T01:31:25;51.17;36.45;68.09;;
57092;Laerm;42968;52.094;4.328;2023-09-07T01:33:50;50.66;37.32;68.15;;
57092;Laerm;42968;52.094;4.328;2023-09-07T01:36:16;42.54;35.66;49.25;;
57092;Laerm;42968;52.094;4.328;2023-09-07T01:38:41;53.77;39.34;72.95;;
57092;Laerm;42968;52.094;4.328;2023-09-07T01:41:06;57.78;40.03;74.58;;
57092;Laerm;42968;52.094;4.328;2023-09-07T01:43:32;42.58;39.46;44.43;;
57092;Laerm;42968;52.094;4.328;2023-09-07T01:45:58;51.97;39.46;68.87;;
57092;Laerm;42968;52.094;4.328;2023-09-07T01:48:23;53.03;37.12;71.99;;
57092;Laerm;42968;52.094;4.328;2023-09-07T01:50:52;46.08;39.21;65.53;;
57092;Laerm;42968;52.094;4.328;2023-09-07T01:53:18;42.64;39.34;52.71;;
57092;Laerm;42968;52.094;4.328;2023-09-07T01:55:43;56.97;40.03;70.46;;
57092;Laerm;42968;52.094;4.328;2023-09-07T01:58:09;51.99;39.46;69.25;;
57092;Laerm;42968;52.094;4.328;2023-09-07T02:00:37;58.28;40.53;77.31;;
57092;Laerm;42968;52.094;4.328;2023-09-07T02:03:03;54.03;40.08;65.86;;
57092;Laerm;42968;52.094;4.328;2023-09-07T02:05:28;42.32;39.34;45.77;;
57092;Laerm;42968;52.094;4.328;2023-09-07T02:07:54;58.01;40.43;74.33;;
57092;Laerm;42968;52.094;4.328;2023-09-07T02:10:19;52.66;38.37;67.64;;
57092;Laerm;42968;52.094;4.328;2023-09-07T02:12:45;42.16;39.21;44.27;;
57092;Laerm;42968;52.094;4.328;2023-09-07T02:15:10;55.20;40.03;72.42;;
57092;Laerm;42968;52.094;4.328;2023-09-07T02:17:35;51.45;39.34;66.33;;
57092;Laerm;42968;52.094;4.328;2023-09-07T02:20:01;42.36;38.37;45.80;;
57092;Laerm;42968;52.094;4.328;2023-09-07T02:22:26;53.17;39.70;74.56;;
57092;Laerm;42968;52.094;4.328;2023-09-07T02:24:51;42.55;40.13;48.15;;
57092;Laerm;42968;52.094;4.328;2023-09-07T02:27:16;42.50;39.70;48.80;;
57092;Laerm;42968;52.094;4.328;2023-09-07T02:29:42;52.37;39.81;67.12;;
57092;Laerm;42968;52.094;4.328;2023-09-07T02:32:07;42.81;39.08;49.50;;
57092;Laerm;42968;52.094;4.328;2023-09-07T02:34:34;56.99;40.18;71.24;;
57092;Laerm;42968;52.094;4.328;2023-09-07T02:37:01;48.57;37.88;65.48;;
57092;Laerm;42968;52.094;4.328;2023-09-07T02:39:26;62.05;40.80;79.79;;
57092;Laerm;42968;52.094;4.328;2023-09-07T02:41:52;54.47;40.23;73.11;;
57092;Laerm;42968;52.094;4.328;2023-09-07T02:44:18;51.22;39.46;69.64;;
57092;Laerm;42968;52.094;4.328;2023-09-07T02:46:43;55.51;39.46;71.08;;
57092;Laerm;42968;52.094;4.328;2023-09-07T02:49:08;56.96;38.81;73.18;;
57092;Laerm;42968;52.094;4.328;2023-09-07T02:51:33;56.06;39.70;71.49;;
57092;Laerm;42968;52.094;4.328;2023-09-07T02:54:00;57.57;38.95;75.10;;
57092;Laerm;42968;52.094;4.328;2023-09-07T02:56:26;50.42;39.81;67.45;;
57092;Laerm;42968;52.094;4.328;2023-09-07T02:58:51;52.25;38.81;68.42;;
57092;Laerm;42968;52.094;4.328;2023-09-07T03:01:16;60.09;40.03;78.47;;
57092;Laerm;42968;52.094;4.328;2023-09-07T03:03:45;53.30;39.81;72.34;;
57092;Laerm;42968;52.094;4.328;2023-09-07T03:06:11;42.85;39.92;50.01;;
57092;Laerm;42968;52.094;4.328;2023-09-07T03:08:37;58.99;40.98;72.83;;
57092;Laerm;42968;52.094;4.328;2023-09-07T03:11:06;57.60;40.13;74.43;;
57092;Laerm;42968;52.094;4.328;2023-09-07T03:13:31;58.98;39.81;72.91;;
57092;Laerm;42968;52.094;4.328;2023-09-07T03:15:57;57.80;41.38;74.41;;
57092;Laerm;42968;52.094;4.328;2023-09-07T03:18:23;63.14;41.89;83.94;;
57092;Laerm;42968;52.094;4.328;2023-09-07T03:20:49;57.95;41.22;75.06;;
57092;Laerm;42968;52.094;4.328;2023-09-07T03:23:14;57.33;38.05;72.76;;
57092;Laerm;42968;52.094;4.328;2023-09-07T03:25:40;59.87;42.65;74.26;;
57092;Laerm;42968;52.094;4.328;2023-09-07T03:28:05;57.08;41.06;73.03;;
57092;Laerm;42968;52.094;4.328;2023-09-07T03:30:31;62.31;42.76;75.48;;
57092;Laerm;42968;52.094;4.328;2023-09-07T03:32:56;63.21;43.39;76.19;;
57092;Laerm;42968;52.094;4.328;2023-09-07T03:35:21;59.62;42.22;73.85;;
57092;Laerm;42968;52.094;4.328;2023-09-07T03:37:47;65.66;47.02;78.65;;
57092;Laerm;42968;52.094;4.328;2023-09-07T03:40:12;64.72;42.88;80.56;;
57092;Laerm;42968;52.094;4.328;2023-09-07T03:42:37;63.38;44.69;75.31;;
57092;Laerm;42968;52.094;4.328;2023-09-07T03:45:04;62.88;42.76;79.68;;
57092;Laerm;42968;52.094;4.328;2023-09-07T03:47:29;74.88;42.98;96.98;;
57092;Laerm;42968;52.094;4.328;2023-09-07T03:49:55;61.87;42.13;73.68;;
57092;Laerm;42968;52.094;4.328;2023-09-07T03:52:22;58.96;41.89;74.00;;
57092;Laerm;42968;52.094;4.328;2023-09-07T03:54:49;61.28;41.89;77.00;;
57092;Laerm;42968;52.094;4.328;2023-09-07T03:57:14;59.55;42.53;73.45;;
57092;Laerm;42968;52.094;4.328;2023-09-07T03:59:40;64.27;43.77;76.12;;
57092;Laerm;42968;52.094;4.328;2023-09-07T04:02:05;64.86;42.19;83.04;;
57092;Laerm;42968;52.094;4.328;2023-09-07T04:04:30;58.95;42.09;74.00;;
57092;Laerm;42968;52.094;4.328;2023-09-07T04:06:55;65.10;42.76;83.61;;
57092;Laerm;42968;52.094;4.328;2023-09-07T04:09:21;63.13;44.80;76.48;;
57092;Laerm;42968;52.094;4.328;2023-09-07T04:11:46;61.44;44.15;71.57;;
57092;Laerm;42968;52.094;4.328;2023-09-07T04:14:11;64.82;45.14;79.00;;
57092;Laerm;42968;52.094;4.328;2023-09-07T04:16:36;65.52;46.20;77.88;;
57092;Laerm;42968;52.094;4.328;2023-09-07T04:19:03;66.72;44.35;84.89;;
57092;Laerm;42968;52.094;4.328;2023-09-07T04:21:28;66.72;45.23;85.62;;
57092;Laerm;42968;52.094;4.328;2023-09-07T04:23:53;63.22;44.38;75.32;;
57092;Laerm;42968;52.094;4.328;2023-09-07T04:26:19;63.92;44.39;74.81;;
57092;Laerm;42968;52.094;4.328;2023-09-07T04:28:44;67.09;45.99;76.76;;
57092;Laerm;42968;52.094;4.328;2023-09-07T04:31:09;65.63;43.72;80.99;;
57092;Laerm;42968;52.094;4.328;2023-09-07T04:33:35;66.28;46.50;77.68;;
57092;Laerm;42968;52.094;4.328;2023-09-07T04:36:10;67.92;47.81;79.50;;
57092;Laerm;42968;52.094;4.328;2023-09-07T04:38:35;68.02;49.07;81.53;;
57092;Laerm;42968;52.094;4.328;2023-09-07T04:41:07;66.14;46.66;75.55;;
57092;Laerm;42968;52.094;4.328;2023-09-07T04:43:32;66.82;44.83;76.44;;
57092;Laerm;42968;52.094;4.328;2023-09-07T04:45:58;68.93;49.98;81.43;;
57092;Laerm;42968;52.094;4.328;2023-09-07T04:48:23;68.34;47.68;82.29;;
57092;Laerm;42968;52.094;4.328;2023-09-07T04:50:48;68.24;48.16;76.55;;
57092;Laerm;42968;52.094;4.328;2023-09-07T04:53:13;67.40;46.79;77.52;;
57092;Laerm;42968;52.094;4.328;2023-09-07T04:55:39;67.97;47.81;78.74;;
57092;Laerm;42968;52.094;4.328;2023-09-07T04:58:04;68.89;49.20;81.19;;
57092;Laerm;42968;52.094;4.328;2023-09-07T05:00:29;69.25;50.42;81.18;;
57092;Laerm;42968;52.094;4.328;2023-09-07T05:02:55;66.55;48.12;79.19;;
57092;Laerm;42968;52.094;4.328;2023-09-07T05:05:20;68.65;51.87;81.87;;
57092;Laerm;42968;52.094;4.328;2023-09-07T05:07:45;66.78;47.58;85.08;;
57092;Laerm;42968;52.094;4.328;2023-09-07T05:10:11;66.57;47.18;76.48;;
57092;Laerm;42968;52.094;4.328;2023-09-07T05:12:37;68.03;48.84;77.69;;
57092;Laerm;42968;52.094;4.328;2023-09-07T05:15:03;67.86;45.04;84.50;;
57092;Laerm;42968;52.094;4.328;2023-09-07T05:17:31;68.82;49.21;80.17;;
57092;Laerm;42968;52.094;4.328;2023-09-07T05:19:56;68.65;45.72;84.45;;
57092;Laerm;42968;52.094;4.328;2023-09-07T05:22:21;69.16;49.36;79.30;;
57092;Laerm;42968;52.094;4.328;2023-09-07T05:24:47;66.69;49.24;77.70;;
57092;Laerm;42968;52.094;4.328;2023-09-07T05:27:12;68.31;51.16;79.61;;
57092;Laerm;42968;52.094;4.328;2023-09-07T05:29:37;67.33;49.27;76.65;;
57092;Laerm;42968;52.094;4.328;2023-09-07T05:32:03;68.76;46.93;81.75;;
57092;Laerm;42968;52.094;4.328;2023-09-07T05:34:29;69.54;50.39;86.85;;
57092;Laerm;42968;52.094;4.328;2023-09-07T05:36:54;67.68;50.72;77.54;;
57092;Laerm;42968;52.094;4.328;2023-09-07T05:39:20;67.37;48.41;74.38;;
57092;Laerm;42968;52.094;4.328;2023-09-07T05:41:45;71.12;55.48;82.78;;
57092;Laerm;42968;52.094;4.328;2023-09-07T05:44:10;67.46;53.05;75.33;;
57092;Laerm;42968;52.094;4.328;2023-09-07T05:46:35;68.33;52.79;78.40;;
57092;Laerm;42968;52.094;4.328;2023-09-07T05:49:01;68.82;52.62;78.71;;
57092;Laerm;42968;52.094;4.328;2023-09-07T05:51:26;69.75;48.36;81.18;;
57092;Laerm;42968;52.094;4.328;2023-09-07T05:53:51;68.68;48.54;80.35;;
57092;Laerm;42968;52.094;4.328;2023-09-07T05:56:17;68.17;50.70;79.05;;
57092;Laerm;42968;52.094;4.328;2023-09-07T05:58:42;66.64;48.54;80.67;;
57092;Laerm;42968;52.094;4.328;2023-09-07T06:01:07;69.20;50.16;81.96;;
57092;Laerm;42968;52.094;4.328;2023-09-07T06:03:33;69.27;50.92;78.52;;
57092;Laerm;42968;52.094;4.328;2023-09-07T06:05:59;69.49;50.53;81.38;;
57092;Laerm;42968;52.094;4.328;2023-09-07T06:08:25;68.47;53.97;77.51;;
57092;Laerm;42968;52.094;4.328;2023-09-07T06:10:50;69.94;50.44;78.55;;
57092;Laerm;42968;52.094;4.328;2023-09-07T06:13:15;69.12;49.51;78.49;;
57092;Laerm;42968;52.094;4.328;2023-09-07T06:15:40;67.76;56.60;80.96;;
57092;Laerm;42968;52.094;4.328;2023-09-07T06:18:06;69.37;58.51;78.92;;
57092;Laerm;42968;52.094;4.328;2023-09-07T06:20:31;69.56;55.83;79.36;;
57092;Laerm;42968;52.094;4.328;2023-09-07T06:22:56;82.92;56.17;105.19;;
57092;Laerm;42968;52.094;4.328;2023-09-07T06:25:21;68.48;55.13;78.72;;
57092;Laerm;42968;52.094;4.328;2023-09-07T06:27:47;69.85;54.42;83.36;;
57092;Laerm;42968;52.094;4.328;2023-09-07T06:30:13;69.33;56.11;81.91;;
57092;Laerm;42968;52.094;4.328;2023-09-07T06:32:38;68.23;53.06;77.10;;
57092;Laerm;42968;52.094;4.328;2023-09-07T06:35:03;70.48;54.50;79.29;;
57092;Laerm;42968;52.094;4.328;2023-09-07T06:37:29;67.26;50.18;78.60;;
57092;Laerm;42968;52.094;4.328;2023-09-07T06:39:54;69.37;53.63;79.56;;
57092;Laerm;42968;52.094;4.328;2023-09-07T06:42:20;69.41;50.53;80.70;;
57092;Laerm;42968;52.094;4.328;2023-09-07T06:44:45;69.53;60.23;79.14;;
57092;Laerm;42968;52.094;4.328;2023-09-07T06:47:10;69.61;53.86;79.16;;
57092;Laerm;42968;52.094;4.328;2023-09-07T06:49:37;68.43;54.30;77.15;;
57092;Laerm;42968;52.094;4.328;2023-09-07T06:52:03;70.27;49.59;86.87;;
57092;Laerm;42968;52.094;4.328;2023-09-07T06:54:28;67.81;56.53;74.81;;
57092;Laerm;42968;52.094;4.328;2023-09-07T06:56:53;68.87;58.15;77.52;;
57092;Laerm;42968;52.094;4.328;2023-09-07T06:59:19;72.18;56.97;90.15;;
57092;Laerm;42968;52.094;4.328;2023-09-07T07:01:44;70.27;56.77;84.54;;
57092;Laerm;42968;52.094;4.328;2023-09-07T07:04:09;68.93;51.54;80.40;;
57092;Laerm;42968;52.094;4.328;2023-09-07T07:06:34;67.26;54.23;77.66;;
57092;Laerm;42968;52.094;4.328;2023-09-07T07:09:00;68.08;48.81;79.52;;
57092;Laerm;42968;52.094;4.328;2023-09-07T07:11:25;69.83;47.90;80.09;;
57092;Laerm;42968;52.094;4.328;2023-09-07T07:13:50;70.59;54.52;81.18;;
57092;Laerm;42968;52.094;4.328;2023-09-07T07:16:16;67.79;47.59;76.95;;
57092;Laerm;42968;52.094;4.328;2023-09-07T07:18:42;69.60;46.91;83.10;;
57092;Laerm;42968;52.094;4.328;2023-09-07T07:21:07;67.88;54.84;79.19;;
57092;Laerm;42968;52.094;4.328;2023-09-07T07:23:34;67.51;48.21;78.75;;
57092;Laerm;42968;52.094;4.328;2023-09-07T07:25:59;69.38;47.63;78.42;;
57092;Laerm;42968;52.094;4.328;2023-09-07T07:28:24;68.26;52.45;78.89;;
57092;Laerm;42968;52.094;4.328;2023-09-07T07:30:49;69.03;49.29;80.15;;
57092;Laerm;42968;52.094;4.328;2023-09-07T07:33:17;69.45;50.86;79.41;;
57092;Laerm;42968;52.094;4.328;2023-09-07T07:35:42;68.57;47.44;77.98;;
57092;Laerm;42968;52.094;4.328;2023-09-07T07:38:08;69.45;53.85;80.44;;
57092;Laerm;42968;52.094;4.328;2023-09-07T07:40:33;67.94;49.93;77.81;;
57092;Laerm;42968;52.094;4.328;2023-09-07T07:42:58;68.87;54.39;80.73;;
57092;Laerm;42968;52.094;4.328;2023-09-07T07:45:24;68.52;51.52;80.99;;
57092;Laerm;42968;52.094;4.328;2023-09-07T07:47:49;69.31;47.68;78.22;;
57092;Laerm;42968;52.094;4.328;2023-09-07T07:50:15;68.37;52.10;80.76;;
57092;Laerm;42968;52.094;4.328;2023-09-07T07:52:40;70.85;49.47;82.44;;
57092;Laerm;42968;52.094;4.328;2023-09-07T07:55:06;69.03;52.95;79.37;;
57092;Laerm;42968;52.094;4.328;2023-09-07T07:57:31;69.25;49.94;81.16;;
57092;Laerm;42968;52.094;4.328;2023-09-07T07:59:57;66.95;54.27;75.58;;
57092;Laerm;42968;52.094;4.328;2023-09-07T08:02:22;69.38;51.56;82.83;;
57092;Laerm;42968;52.094;4.328;2023-09-07T08:04:48;67.86;49.62;84.83;;
57092;Laerm;42968;52.094;4.328;2023-09-07T08:07:13;68.99;50.24;82.54;;
57092;Laerm;42968;52.094;4.328;2023-09-07T08:09:38;67.51;49.53;78.75;;
57092;Laerm;42968;52.094;4.328;2023-09-07T08:12:04;70.46;57.06;81.32;;
57092;Laerm;42968;52.094;4.328;2023-09-07T08:14:30;67.86;55.55;75.49;;
57092;Laerm;42968;52.094;4.328;2023-09-07T08:16:56;68.48;49.43;76.42;;
57092;Laerm;42968;52.094;4.328;2023-09-07T08:19:21;67.21;47.77;77.97;;
57092;Laerm;42968;52.094;4.328;2023-09-07T08:21:46;68.32;52.81;78.88;;
57092;Laerm;42968;52.094;4.328;2023-09-07T08:24:12;67.51;48.20;79.14;;
57092;Laerm;42968;52.094;4.328;2023-09-07T08:26:38;67.74;50.08;79.53;;
57092;Laerm;42968;52.094;4.328;2023-09-07T08:29:03;68.72;51.23;78.75;;
57092;Laerm;42968;52.094;4.328;2023-09-07T08:31:33;66.55;48.58;74.18;;
57092;Laerm;42968;52.094;4.328;2023-09-07T08:34:03;68.94;47.32;81.85;;
57092;Laerm;42968;52.094;4.328;2023-09-07T08:36:29;67.06;50.80;78.41;;
57092;Laerm;42968;52.094;4.328;2023-09-07T08:38:57;68.87;51.44;80.33;;
57092;Laerm;42968;52.094;4.328;2023-09-07T08:41:26;68.41;48.98;78.67;;
57092;Laerm;42968;52.094;4.328;2023-09-07T08:43:52;67.90;49.67;79.01;;
57092;Laerm;42968;52.094;4.328;2023-09-07T08:46:18;66.55;48.40;74.45;;
57092;Laerm;42968;52.094;4.328;2023-09-07T08:48:45;68.64;48.18;81.47;;
57092;Laerm;42968;52.094;4.328;2023-09-07T08:51:11;69.26;48.78;79.45;;
57092;Laerm;42968;52.094;4.328;2023-09-07T08:53:38;69.77;51.13;79.69;;
57092;Laerm;42968;52.094;4.328;2023-09-07T08:56:04;66.60;45.20;75.77;;
57092;Laerm;42968;52.094;4.328;2023-09-07T08:58:29;68.30;47.86;77.71;;
57092;Laerm;42968;52.094;4.328;2023-09-07T09:00:57;67.74;45.51;83.33;;
57092;Laerm;42968;52.094;4.328;2023-09-07T09:03:22;69.34;52.59;82.69;;
57092;Laerm;42968;52.094;4.328;2023-09-07T09:05:48;67.40;51.78;77.81;;
57092;Laerm;42968;52.094;4.328;2023-09-07T09:08:15;68.22;52.00;77.39;;
57092;Laerm;42968;52.094;4.328;2023-09-07T09:10:45;68.86;49.88;79.46;;
57092;Laerm;42968;52.094;4.328;2023-09-07T09:13:11;68.60;49.23;80.31;;
57092;Laerm;42968;52.094;4.328;2023-09-07T09:15:36;67.68;47.90;78.49;;
57092;Laerm;42968;52.094;4.328;2023-09-07T09:18:11;67.08;47.96;76.39;;
57092;Laerm;42968;52.094;4.328;2023-09-07T09:20:37;67.78;53.83;77.01;;
57092;Laerm;42968;52.094;4.328;2023-09-07T09:23:03;67.95;45.94;77.25;;
57092;Laerm;42968;52.094;4.328;2023-09-07T09:25:30;67.97;46.55;78.21;;
57092;Laerm;42968;52.094;4.328;2023-09-07T09:27:56;66.83;49.59;75.04;;
57092;Laerm;42968;52.094;4.328;2023-09-07T09:30:21;68.55;52.13;80.06;;
57092;Laerm;42968;52.094;4.328;2023-09-07T09:32:46;67.69;47.86;77.30;;
57092;Laerm;42968;52.094;4.328;2023-09-07T09:35:13;67.90;48.60;78.85;;
57092;Laerm;42968;52.094;4.328;2023-09-07T09:37:44;69.47;52.00;82.66;;
57092;Laerm;42968;52.094;4.328;2023-09-07T09:40:11;67.54;45.45;76.27;;
57092;Laerm;42968;52.094;4.328;2023-09-07T09:42:37;69.89;50.77;92.18;;
57092;Laerm;42968;52.094;4.328;2023-09-07T09:45:03;69.37;45.66;79.93;;
57092;Laerm;42968;52.094;4.328;2023-09-07T09:47:30;69.30;48.98;82.47;;
57092;Laerm;42968;52.094;4.328;2023-09-07T09:49:56;68.22;50.90;81.01;;
57092;Laerm;42968;52.094;4.328;2023-09-07T09:52:23;67.05;46.78;76.93;;
57092;Laerm;42968;52.094;4.328;2023-09-07T09:54:49;68.35;49.41;77.92;;
57092;Laerm;42968;52.094;4.328;2023-09-07T09:57:15;67.94;56.75;76.18;;
57092;Laerm;42968;52.094;4.328;2023-09-07T09:59:40;67.65;50.27;77.58;;
57092;Laerm;42968;52.094;4.328;2023-09-07T10:02:06;68.33;46.66;77.57;;
57092;Laerm;42968;52.094;4.328;2023-09-07T10:04:31;67.43;44.94;79.04;;
57092;Laerm;42968;52.094;4.328;2023-09-07T10:07:00;67.49;47.36;78.07;;
57092;Laerm;42968;52.094;4.328;2023-09-07T10:09:33;69.03;51.08;81.15;;
57092;Laerm;42968;52.094;4.328;2023-09-07T10:11:59;68.01;54.71;79.37;;
57092;Laerm;42968;52.094;4.328;2023-09-07T10:14:39;68.23;48.83;80.61;;
57092;Laerm;42968;52.094;4.328;2023-09-07T10:17:04;69.06;46.35;79.61;;
57092;Laerm;42968;52.094;4.328;2023-09-07T10:19:30;68.34;47.20;82.37;;
57092;Laerm;42968;52.094;4.328;2023-09-07T10:21:55;69.07;49.80;83.17;;
57092;Laerm;42968;52.094;4.328;2023-09-07T10:24:24;68.72;47.98;78.87;;
57092;Laerm;42968;52.094;4.328;2023-09-07T10:27:00;67.84;46.73;76.37;;
57092;Laerm;42968;52.094;4.328;2023-09-07T10:29:26;67.47;47.85;81.69;;
57092;Laerm;42968;52.094;4.328;2023-09-07T10:31:51;69.67;48.54;81.06;;
57092;Laerm;42968;52.094;4.328;2023-09-07T10:34:17;67.94;56.07;78.87;;
57092;Laerm;42968;52.094;4.328;2023-09-07T10:36:42;67.60;54.88;74.48;;
57092;Laerm;42968;52.094;4.328;2023-09-07T10:39:07;68.45;46.43;79.38;;
57092;Laerm;42968;52.094;4.328;2023-09-07T10:41:43;68.48;45.83;80.12;;
57092;Laerm;42968;52.094;4.328;2023-09-07T10:44:09;68.25;45.60;81.64;;
57092;Laerm;42968;52.094;4.328;2023-09-07T10:46:35;67.32;45.57;78.17;;
57092;Laerm;42968;52.094;4.328;2023-09-07T10:49:02;67.21;52.16;80.29;;
57092;Laerm;42968;52.094;4.328;2023-09-07T10:51:28;68.14;46.02;77.49;;
57092;Laerm;42968;52.094;4.328;2023-09-07T10:53:55;79.30;52.04;102.36;;
57092;Laerm;42968;52.094;4.328;2023-09-07T10:56:20;67.44;48.51;76.35;;
57092;Laerm;42968;52.094;4.328;2023-09-07T10:58:49;70.64;48.77;83.94;;
57092;Laerm;42968;52.094;4.328;2023-09-07T11:01:16;68.65;48.98;81.27;;
57092;Laerm;42968;52.094;4.328;2023-09-07T11:03:41;68.04;49.87;77.47;;
57092;Laerm;42968;52.094;4.328;2023-09-07T11:06:08;68.93;48.60;80.17;;
57092;Laerm;42968;52.094;4.328;2023-09-07T11:08:34;69.95;44.35;77.62;;
57092;Laerm;42968;52.094;4.328;2023-09-07T11:11:00;68.43;52.79;79.77;;
57092;Laerm;42968;52.094;4.328;2023-09-07T11:13:25;68.15;50.52;77.20;;
57092;Laerm;42968;52.094;4.328;2023-09-07T11:15:55;67.51;48.80;75.18;;
57092;Laerm;42968;52.094;4.328;2023-09-07T11:18:21;68.05;45.80;80.68;;
57092;Laerm;42968;52.094;4.328;2023-09-07T11:20:47;70.38;45.91;78.14;;
57092;Laerm;42968;52.094;4.328;2023-09-07T11:23:13;69.07;49.73;79.77;;
57092;Laerm;42968;52.094;4.328;2023-09-07T11:25:38;69.32;46.64;82.26;;
57092;Laerm;42968;52.094;4.328;2023-09-07T11:28:08;70.36;47.74;81.12;;
57092;Laerm;42968;52.094;4.328;2023-09-07T11:30:33;67.64;50.57;77.47;;
57092;Laerm;42968;52.094;4.328;2023-09-07T11:33:02;66.47;47.63;77.09;;
57092;Laerm;42968;52.094;4.328;2023-09-07T11:35:29;68.90;50.34;84.19;;
57092;Laerm;42968;52.094;4.328;2023-09-07T11:37:54;68.58;48.52;78.76;;
57092;Laerm;42968;52.094;4.328;2023-09-07T11:40:20;68.24;49.29;79.34;;
57092;Laerm;42968;52.094;4.328;2023-09-07T11:42:45;67.83;47.08;75.68;;
57092;Laerm;42968;52.094;4.328;2023-09-07T11:45:10;68.33;43.86;79.70;;
57092;Laerm;42968;52.094;4.328;2023-09-07T11:47:38;68.91;46.71;80.23;;
57092;Laerm;42968;52.094;4.328;2023-09-07T11:50:03;69.51;48.60;81.53;;
57092;Laerm;42968;52.094;4.328;2023-09-07T11:52:29;69.28;47.06;81.02;;
57092;Laerm;42968;52.094;4.328;2023-09-07T11:54:54;67.24;47.22;76.55;;
57092;Laerm;42968;52.094;4.328;2023-09-07T11:57:19;66.77;47.57;76.20;;
57092;Laerm;42968;52.094;4.328;2023-09-07T11:59:44;69.59;54.51;80.11;;
57092;Laerm;42968;52.094;4.328;2023-09-07T12:02:10;73.83;51.88;95.23;;
57092;Laerm;42968;52.094;4.328;2023-09-07T12:04:40;69.21;56.45;82.31;;
57092;Laerm;42968;52.094;4.328;2023-09-07T12:07:05;68.79;55.74;78.01;;
57092;Laerm;42968;52.094;4.328;2023-09-07T12:09:30;69.13;57.25;79.64;;
57092;Laerm;42968;52.094;4.328;2023-09-07T12:11:55;68.63;49.33;79.18;;
57092;Laerm;42968;52.094;4.328;2023-09-07T12:14:21;70.78;52.22;85.17;;
57092;Laerm;42968;52.094;4.328;2023-09-07T12:16:47;68.52;52.90;81.31;;
57092;Laerm;42968;52.094;4.328;2023-09-07T12:19:12;68.39;45.89;75.89;;
57092;Laerm;42968;52.094;4.328;2023-09-07T12:21:38;68.99;49.28;81.20;;
57092;Laerm;42968;52.094;4.328;2023-09-07T12:24:03;68.71;51.20;76.82;;
57092;Laerm;42968;52.094;4.328;2023-09-07T12:26:28;68.58;51.97;81.70;;
57092;Laerm;42968;52.094;4.328;2023-09-07T12:28:53;65.88;47.46;73.77;;
57092;Laerm;42968;52.094;4.328;2023-09-07T12:31:19;71.20;55.86;88.60;;
57092;Laerm;42968;52.094;4.328;2023-09-07T12:33:44;68.07;53.70;75.34;;
57092;Laerm;42968;52.094;4.328;2023-09-07T12:36:09;67.57;52.08;75.49;;
57092;Laerm;42968;52.094;4.328;2023-09-07T12:38:36;68.85;54.59;77.06;;
57092;Laerm;42968;52.094;4.328;2023-09-07T12:41:02;66.18;48.76;76.32;;
57092;Laerm;42968;52.094;4.328;2023-09-07T12:43:27;71.18;48.71;84.70;;
57092;Laerm;42968;52.094;4.328;2023-09-07T12:45:53;69.45;50.05;83.74;;
57092;Laerm;42968;52.094;4.328;2023-09-07T12:48:19;69.16;54.37;82.49;;
57092;Laerm;42968;52.094;4.328;2023-09-07T12:50:44;67.57;54.90;79.19;;
57092;Laerm;42968;52.094;4.328;2023-09-07T12:53:09;68.67;51.85;83.31;;
57092;Laerm;42968;52.094;4.328;2023-09-07T12:55:34;68.87;49.12;77.69;;
57092;Laerm;42968;52.094;4.328;2023-09-07T12:58:00;69.77;49.28;79.90;;
57092;Laerm;42968;52.094;4.328;2023-09-07T13:00:25;69.45;53.41;84.79;;
57092;Laerm;42968;52.094;4.328;2023-09-07T13:02:51;68.72;52.38;85.30;;
57092;Laerm;42968;52.094;4.328;2023-09-07T13:05:16;68.14;51.03;78.70;;
57092;Laerm;42968;52.094;4.328;2023-09-07T13:07:41;67.62;48.51;76.66;;
57092;Laerm;42968;52.094;4.328;2023-09-07T13:10:09;70.53;59.67;81.13;;
57092;Laerm;42968;52.094;4.328;2023-09-07T13:12:34;68.15;52.56;88.69;;
57092;Laerm;42968;52.094;4.328;2023-09-07T13:14:59;68.99;49.43;76.38;;
57092;Laerm;42968;52.094;4.328;2023-09-07T13:17:25;69.70;55.28;83.50;;
57092;Laerm;42968;52.094;4.328;2023-09-07T13:19:50;69.67;55.95;79.20;;
57092;Laerm;42968;52.094;4.328;2023-09-07T13:22:16;67.87;44.90;77.30;;
57092;Laerm;42968;52.094;4.328;2023-09-07T13:24:41;70.06;52.53;81.03;;
57092;Laerm;42968;52.094;4.328;2023-09-07T13:27:06;69.48;57.67;79.09;;
57092;Laerm;42968;52.094;4.328;2023-09-07T13:29:33;71.05;55.97;89.35;;
57092;Laerm;42968;52.094;4.328;2023-09-07T13:31:58;68.41;58.29;79.87;;
57092;Laerm;42968;52.094;4.328;2023-09-07T13:34:24;69.70;54.74;78.40;;
57092;Laerm;42968;52.094;4.328;2023-09-07T13:36:49;68.26;52.21;76.54;;